Time;durP1;ratioP1;P1;durP2;ratioP2;P2;SDS_P1;SDS_P2;PMS_P1;PMS_P2;Temp;Humidity;BMP_temperature;BMP_pressure;BME280_temperature;BME280_humidity;BME280_pressure;Samples;Min_cycle;Max_cycle;Signal;HPM_P1;HPM_P2
2024/02/04 00:00:17;;;;;;;9.50;5.60;;;10.30;99.90;;;;;;5052399;28;20466;-51
2024/02/04 00:02:43;;;;;;;10.20;4.97;;;10.30;99.90;;;;;;5052563;28;20039;-54
2024/02/04 00:05:09;;;;;;;8.47;4.60;;;10.30;99.90;;;;;;5052244;28;20032;-53
2024/02/04 00:07:34;;;;;;;7.00;3.60;;;10.30;99.90;;;;;;5052252;28;20037;-52
2024/02/04 00:10:00;;;;;;;7.77;3.57;;;10.40;99.90;;;;;;5052382;28;20033;-54
2024/02/04 00:12:26;;;;;;;5.07;3.10;;;10.40;99.90;;;;;;5052725;28;20040;-53
2024/02/04 00:14:52;;;;;;;5.33;3.10;;;10.30;99.90;;;;;;5052401;28;20251;-54
2024/02/04 00:17:18;;;;;;;7.03;3.50;;;10.30;99.90;;;;;;5052167;28;20477;-50
2024/02/04 00:19:44;;;;;;;4.23;2.53;;;10.40;99.90;;;;;;5050789;28;20029;-51
2024/02/04 00:22:09;;;;;;;5.07;2.53;;;10.40;99.90;;;;;;5052214;28;20481;-53
2024/02/04 00:24:35;;;;;;;4.00;2.33;;;10.40;99.90;;;;;;5051879;28;20411;-53
2024/02/04 00:27:00;;;;;;;3.80;1.80;;;10.30;99.90;;;;;;5050786;28;20047;-51
2024/02/04 00:29:26;;;;;;;4.50;1.63;;;10.30;99.90;;;;;;5050648;28;20191;-55
2024/02/04 00:31:52;;;;;;;5.10;2.57;;;10.30;99.90;;;;;;5050730;28;20044;-54
2024/02/04 00:34:18;;;;;;;4.83;2.30;;;10.30;99.90;;;;;;5049939;28;20029;-54
2024/02/04 00:36:43;;;;;;;3.17;1.53;;;10.30;99.90;;;;;;5050185;28;20036;-53
2024/02/04 00:39:09;;;;;;;3.77;1.70;;;10.20;99.90;;;;;;5050596;28;20029;-54
2024/02/04 00:41:35;;;;;;;2.43;1.47;;;10.20;99.90;;;;;;5050649;28;20485;-54
2024/02/04 00:44:01;;;;;;;2.90;1.40;;;10.20;99.90;;;;;;5051938;28;20547;-54
2024/02/04 00:46:27;;;;;;;3.80;1.60;;;10.10;99.90;;;;;;5050510;28;20516;-53
2024/02/04 00:48:52;;;;;;;3.63;1.90;;;10.10;99.90;;;;;;5050330;28;20033;-50
2024/02/04 00:51:19;;;;;;;4.07;2.23;;;10.10;99.90;;;;;;5051874;28;20028;-53
2024/02/04 00:53:45;;;;;;;4.43;2.60;;;10.10;99.90;;;;;;5051587;28;20124;-54
2024/02/04 00:56:11;;;;;;;6.77;2.97;;;10.00;99.90;;;;;;5050495;28;20116;-53
2024/02/04 00:58:37;;;;;;;4.70;2.40;;;10.10;99.90;;;;;;5051728;28;20125;-54
2024/02/04 01:01:03;;;;;;;5.43;3.20;;;10.00;99.90;;;;;;5050774;28;20048;-53
2024/02/04 01:03:30;;;;;;;4.70;2.60;;;10.00;99.90;;;;;;5050152;28;20429;-54
2024/02/04 01:05:56;;;;;;;6.27;2.87;;;10.00;99.90;;;;;;5050537;28;20037;-53
2024/02/04 01:08:21;;;;;;;6.77;3.13;;;9.90;99.90;;;;;;5051671;28;20044;-55
2024/02/04 01:10:47;;;;;;;5.47;2.67;;;10.00;99.90;;;;;;5051674;28;20029;-54
2024/02/04 01:13:14;;;;;;;5.80;2.97;;;10.00;99.90;;;;;;5051570;28;20025;-53
2024/02/04 01:15:39;;;;;;;5.13;2.87;;;10.00;99.90;;;;;;5050214;28;20464;-54
2024/02/04 01:18:05;;;;;;;5.83;3.27;;;10.00;99.90;;;;;;5049963;28;20029;-54
2024/02/04 01:20:31;;;;;;;6.73;3.60;;;10.00;99.90;;;;;;5050126;28;20087;-54
2024/02/04 01:22:57;;;;;;;7.77;4.10;;;10.00;99.90;;;;;;5051496;28;20363;-54
2024/02/04 01:25:22;;;;;;;6.47;3.77;;;10.00;99.90;;;;;;5051552;28;20048;-52
2024/02/04 01:27:48;;;;;;;7.00;3.50;;;10.00;99.90;;;;;;5050116;28;20256;-54
2024/02/04 01:30:13;;;;;;;8.37;4.80;;;10.00;99.90;;;;;;5051380;28;20033;-51
2024/02/04 01:32:39;;;;;;;7.77;4.07;;;10.00;99.90;;;;;;5049975;28;20033;-50
2024/02/04 01:35:06;;;;;;;7.50;4.00;;;10.00;99.90;;;;;;5049936;28;20029;-53
2024/02/04 01:37:32;;;;;;;7.47;4.00;;;10.00;99.90;;;;;;5051376;28;20029;-54
2024/02/04 01:39:57;;;;;;;8.90;3.60;;;10.00;99.90;;;;;;5050052;28;20041;-53
2024/02/04 01:42:23;;;;;;;9.27;4.67;;;10.00;99.90;;;;;;5051286;28;20025;-51
2024/02/04 01:44:49;;;;;;;10.80;4.80;;;10.00;99.90;;;;;;5051237;28;20025;-54
2024/02/04 01:47:15;;;;;;;7.63;3.90;;;10.00;99.90;;;;;;5052379;28;20501;-54
2024/02/04 01:49:41;;;;;;;7.67;3.80;;;10.10;99.90;;;;;;5053597;28;20516;-51
2024/02/04 01:52:08;;;;;;;7.03;3.87;;;10.00;99.90;;;;;;5053572;28;20044;-53
2024/02/04 01:54:34;;;;;;;10.63;3.90;;;10.00;99.90;;;;;;5053541;28;20037;-51
2024/02/04 01:57:03;;;;;;;7.67;3.57;;;10.00;99.90;;;;;;5056601;28;20059;-54
2024/02/04 01:59:30;;;;;;;7.13;3.50;;;10.00;99.90;;;;;;5037120;28;20028;-55
2024/02/04 02:02:03;;;;;;;6.53;3.57;;;10.00;99.90;;;;;;5053572;28;20025;-54
2024/02/04 02:04:28;;;;;;;7.40;3.90;;;10.10;99.90;;;;;;5053412;28;20444;-54
2024/02/04 02:06:54;;;;;;;8.80;4.07;;;10.10;99.90;;;;;;5053439;28;20029;-50
2024/02/04 02:09:20;;;;;;;8.03;3.63;;;10.10;99.90;;;;;;5053994;28;20033;-52
2024/02/04 02:11:54;;;;;;;8.30;3.90;;;10.10;99.90;;;;;;5053758;28;20401;-52
2024/02/04 02:14:26;;;;;;;8.20;3.27;;;10.00;99.90;;;;;;5053163;28;20083;-52
2024/02/04 02:16:54;;;;;;;9.03;4.13;;;10.00;99.90;;;;;;5053145;28;20073;-54
2024/02/04 02:19:31;;;;;;;6.50;3.47;;;10.10;99.90;;;;;;5053015;28;20028;-53
2024/02/04 02:22:16;;;;;;;6.33;3.23;;;10.10;99.90;;;;;;5053166;28;20088;-53
2024/02/04 02:24:43;;;;;;;7.57;3.90;;;10.10;99.90;;;;;;5054190;28;20037;-54
2024/02/04 02:27:09;;;;;;;8.53;3.63;;;10.10;99.90;;;;;;5052926;28;20560;-54
2024/02/04 02:29:35;;;;;;;8.00;4.07;;;10.10;99.90;;;;;;5054227;28;20120;-53
2024/02/04 02:32:03;;;;;;;7.07;3.70;;;10.10;99.90;;;;;;5052996;28;20041;-52
2024/02/04 02:34:30;;;;;;;8.47;3.87;;;10.10;99.90;;;;;;5053043;28;20136;-53
2024/02/04 02:37:14;;;;;;;8.27;4.17;;;10.10;99.90;;;;;;5054228;28;20025;-52
2024/02/04 02:39:49;;;;;;;9.93;4.03;;;10.10;99.90;;;;;;5052909;28;20021;-53
2024/02/04 02:42:16;;;;;;;7.97;4.27;;;10.10;99.90;;;;;;5054632;28;20424;-54
2024/02/04 02:44:44;;;;;;;7.63;4.03;;;10.20;99.90;;;;;;5054379;28;20021;-50
2024/02/04 02:47:11;;;;;;;11.30;5.20;;;10.30;99.90;;;;;;5054409;28;20033;-50
2024/02/04 02:49:37;;;;;;;9.27;4.80;;;10.20;99.90;;;;;;5054722;28;20501;-54
2024/02/04 02:52:03;;;;;;;11.13;5.30;;;10.20;99.90;;;;;;5054672;28;20477;-52
2024/02/04 02:54:29;;;;;;;9.73;5.23;;;10.20;99.90;;;;;;5054948;28;20094;-53
2024/02/04 02:56:54;;;;;;;9.70;5.20;;;10.20;99.90;;;;;;5054043;28;20056;-51
2024/02/04 02:59:20;;;;;;;8.97;5.30;;;10.20;99.90;;;;;;5052774;28;20033;-55
2024/02/04 03:01:45;;;;;;;10.27;5.63;;;10.20;99.90;;;;;;5052360;28;20385;-52
2024/02/04 03:04:11;;;;;;;11.00;5.73;;;10.20;99.90;;;;;;5052499;28;20050;-54
2024/02/04 03:06:37;;;;;;;11.03;5.00;;;10.20;99.90;;;;;;5052285;28;20033;-51
2024/02/04 03:09:02;;;;;;;12.07;5.30;;;10.20;99.90;;;;;;5053593;28;20116;-52
2024/02/04 03:11:28;;;;;;;12.03;5.63;;;10.10;99.90;;;;;;5053534;28;20060;-53
2024/02/04 03:13:53;;;;;;;12.83;6.90;;;10.20;99.90;;;;;;5052300;28;20029;-54
2024/02/04 03:16:19;;;;;;;13.37;6.60;;;10.20;99.90;;;;;;5053253;28;20569;-55
2024/02/04 03:18:46;;;;;;;11.13;5.60;;;10.30;99.90;;;;;;5051924;28;20029;-55
2024/02/04 03:21:16;;;;;;;12.53;6.40;;;10.30;99.90;;;;;;5035334;28;20021;-52
2024/02/04 03:23:42;;;;;;;10.97;5.77;;;10.20;99.90;;;;;;5051958;28;20021;-55
2024/02/04 03:26:09;;;;;;;13.27;6.73;;;10.20;99.90;;;;;;5051929;28;20037;-55
2024/02/04 03:28:35;;;;;;;12.93;6.47;;;10.30;99.90;;;;;;5051686;28;20040;-54
2024/02/04 03:31:01;;;;;;;11.13;5.77;;;10.30;99.90;;;;;;5051654;28;20028;-53
2024/02/04 03:33:27;;;;;;;10.27;5.37;;;10.30;99.90;;;;;;5051465;28;20086;-54
2024/02/04 03:35:52;;;;;;;12.60;5.60;;;10.30;99.90;;;;;;5051643;28;20033;-50
2024/02/04 03:38:18;;;;;;;11.53;5.73;;;10.40;99.90;;;;;;5051541;28;20025;-53
2024/02/04 03:40:45;;;;;;;11.63;5.30;;;10.40;99.90;;;;;;5051578;28;20525;-53
2024/02/04 03:43:11;;;;;;;12.17;5.70;;;10.40;99.90;;;;;;5051498;28;20070;-54
2024/02/04 03:45:36;;;;;;;10.07;5.10;;;10.40;99.90;;;;;;5052979;28;20037;-53
2024/02/04 03:48:02;;;;;;;9.53;4.93;;;10.40;99.90;;;;;;5052645;28;20025;-54
2024/02/04 03:50:28;;;;;;;11.00;5.67;;;10.40;99.90;;;;;;5051398;28;20025;-55
2024/02/04 03:52:54;;;;;;;10.57;5.03;;;10.40;99.90;;;;;;5051361;28;20028;-54
2024/02/04 03:55:20;;;;;;;10.00;5.17;;;10.30;99.90;;;;;;5051414;28;20036;-55
2024/02/04 03:57:46;;;;;;;12.23;6.37;;;10.40;99.90;;;;;;5051170;28;20043;-53
2024/02/04 04:00:12;;;;;;;12.77;6.30;;;10.40;99.90;;;;;;5052422;28;20119;-53
2024/02/04 04:02:40;;;;;;;10.77;5.47;;;10.40;99.90;;;;;;5052451;28;20056;-53
2024/02/04 04:05:10;;;;;;;10.90;5.47;;;10.40;99.90;;;;;;5052499;28;20067;-54
2024/02/04 04:07:35;;;;;;;;;;;10.50;99.90;;;;;;5052957;28;20397;-52
2024/02/04 04:10:01;;;;;;;11.80;5.80;;;10.50;99.90;;;;;;5052193;28;19908;-54
2024/02/04 04:12:26;;;;;;;11.40;6.00;;;10.50;99.90;;;;;;5052452;28;20103;-51
2024/02/04 04:14:53;;;;;;;13.63;6.87;;;10.50;99.90;;;;;;5052140;28;20046;-54
2024/02/04 04:17:18;;;;;;;13.57;6.73;;;10.40;99.90;;;;;;5052110;28;20029;-54
2024/02/04 04:19:44;;;;;;;14.23;7.13;;;10.40;99.90;;;;;;5052241;28;20523;-53
2024/02/04 04:22:09;;;;;;;14.30;7.40;;;10.40;99.90;;;;;;5052310;28;20025;-50
2024/02/04 04:24:35;;;;;;;14.70;7.10;;;10.50;99.90;;;;;;5052092;28;20025;-51
2024/02/04 04:27:01;;;;;;;16.40;7.87;;;10.40;99.90;;;;;;5051887;28;20033;-50
2024/02/04 04:29:26;;;;;;;18.27;7.87;;;10.40;99.90;;;;;;5051869;28;20037;-49
2024/02/04 04:31:52;;;;;;;15.00;7.37;;;10.40;99.90;;;;;;5052043;28;20109;-53
2024/02/04 04:34:19;;;;;;;15.93;8.37;;;10.40;99.90;;;;;;5051935;28;20029;-53
2024/02/04 04:36:45;;;;;;;15.40;7.60;;;10.40;99.90;;;;;;5051749;28;20040;-54
2024/02/04 04:39:11;;;;;;;17.70;7.97;;;10.40;99.90;;;;;;5051866;28;20025;-51
2024/02/04 04:41:36;;;;;;;15.30;7.53;;;10.50;99.90;;;;;;5051911;28;20025;-54
2024/02/04 04:44:02;;;;;;;14.23;7.43;;;10.40;99.90;;;;;;5051750;28;20032;-54
2024/02/04 04:46:28;;;;;;;15.90;7.70;;;10.50;99.90;;;;;;5052461;28;20096;-54
2024/02/04 04:48:57;;;;;;;14.27;7.83;;;10.50;99.90;;;;;;5051711;28;20128;-50
2024/02/04 04:51:23;;;;;;;;;;;10.50;99.90;;;;;;5052507;28;20041;-53
2024/02/04 04:53:49;;;;;;;15.93;7.70;;;10.40;99.90;;;;;;5051686;28;19919;-54
2024/02/04 04:56:14;;;;;;;14.13;7.20;;;10.50;99.90;;;;;;5051781;28;20025;-52
2024/02/04 04:58:40;;;;;;;14.47;6.73;;;10.50;99.90;;;;;;5052023;28;20068;-53
2024/02/04 05:01:06;;;;;;;16.83;7.77;;;10.50;99.90;;;;;;5050293;28;20385;-53
2024/02/04 05:03:32;;;;;;;14.47;7.17;;;10.50;99.90;;;;;;5051593;28;20075;-53
2024/02/04 05:05:58;;;;;;;13.13;6.67;;;10.50;99.90;;;;;;5051672;28;20430;-54
2024/02/04 05:08:23;;;;;;;12.23;7.17;;;10.50;99.90;;;;;;5051552;28;20063;-54
2024/02/04 05:10:49;;;;;;;15.43;7.60;;;10.50;99.90;;;;;;5051528;28;20498;-51
2024/02/04 05:13:14;;;;;;;15.03;7.10;;;10.50;99.90;;;;;;5051462;28;20466;-54
2024/02/04 05:15:40;;;;;;;14.43;6.70;;;10.50;99.90;;;;;;5051511;28;20068;-53
2024/02/04 05:18:06;;;;;;;16.13;7.10;;;10.50;99.90;;;;;;5050065;28;20470;-54
2024/02/04 05:20:31;;;;;;;13.33;6.60;;;10.50;99.90;;;;;;5051469;28;20052;-54
2024/02/04 05:22:57;;;;;;;14.63;7.77;;;10.40;99.90;;;;;;5055230;28;20028;-54
2024/02/04 05:25:23;;;;;;;12.17;6.97;;;10.50;99.90;;;;;;5056370;28;20051;-54
2024/02/04 05:27:49;;;;;;;13.70;6.50;;;10.50;99.90;;;;;;5055138;28;20033;-54
2024/02/04 05:30:15;;;;;;;17.13;7.67;;;10.40;99.90;;;;;;5055249;28;20025;-51
2024/02/04 05:32:41;;;;;;;13.83;7.87;;;10.40;99.90;;;;;;5055251;28;20048;-54
2024/02/04 05:35:07;;;;;;;14.40;7.33;;;10.50;99.90;;;;;;5055261;28;20025;-53
2024/02/04 05:37:33;;;;;;;18.40;8.10;;;10.50;99.90;;;;;;5055051;28;20032;-54
2024/02/04 05:39:59;;;;;;;16.27;8.30;;;10.50;99.90;;;;;;5055092;28;20044;-53
2024/02/04 05:42:24;;;;;;;15.80;8.87;;;10.50;99.90;;;;;;5055127;28;20107;-51
2024/02/04 05:44:50;;;;;;;21.13;8.87;;;10.50;99.90;;;;;;5054944;28;20032;-53
2024/02/04 05:47:15;;;;;;;18.47;9.13;;;10.50;99.90;;;;;;5054982;28;20508;-51
2024/02/04 05:49:41;;;;;;;19.63;9.63;;;10.40;99.90;;;;;;5055091;28;20040;-50
2024/02/04 05:52:07;;;;;;;21.57;9.37;;;10.50;99.90;;;;;;5055636;28;20029;-53
2024/02/04 05:54:36;;;;;;;19.23;9.27;;;10.50;99.90;;;;;;5054964;28;20590;-54
2024/02/04 05:57:02;;;;;;;20.17;10.10;;;10.50;99.90;;;;;;5054675;28;20033;-53
2024/02/04 05:59:27;;;;;;;17.57;9.20;;;10.50;99.90;;;;;;5054786;28;20466;-53
2024/02/04 06:01:53;;;;;;;22.10;9.93;;;10.50;99.90;;;;;;5054818;28;20025;-50
2024/02/04 06:04:19;;;;;;;20.90;10.77;;;10.50;99.90;;;;;;5054862;28;20439;-53
2024/02/04 06:06:44;;;;;;;25.90;10.80;;;10.50;99.90;;;;;;5054947;28;20119;-49
2024/02/04 06:09:10;;;;;;;26.07;11.50;;;10.50;99.90;;;;;;5054849;28;20075;-52
2024/02/04 06:11:36;;;;;;;24.33;11.43;;;10.60;99.90;;;;;;5054574;28;20021;-49
2024/02/04 06:14:01;;;;;;;23.97;11.87;;;10.50;99.90;;;;;;5054414;28;20112;-49
2024/02/04 06:16:27;;;;;;;24.20;11.57;;;10.60;99.90;;;;;;5054435;28;20040;-50
2024/02/04 06:18:55;;;;;;;27.43;12.33;;;10.60;99.90;;;;;;5054292;28;20024;-52
2024/02/04 06:21:21;;;;;;;23.50;11.03;;;10.60;99.90;;;;;;5054385;28;20474;-51
2024/02/04 06:23:46;;;;;;;26.23;11.10;;;10.60;99.90;;;;;;5054672;28;20036;-54
2024/02/04 06:26:12;;;;;;;29.13;12.07;;;10.60;99.90;;;;;;5054237;28;20072;-55
2024/02/04 06:28:37;;;;;;;21.63;10.53;;;10.60;99.90;;;;;;5054195;28;20036;-54
2024/02/04 06:31:03;;;;;;;24.80;10.47;;;10.50;99.90;;;;;;5054287;28;20033;-55
2024/02/04 06:33:29;;;;;;;21.93;10.13;;;10.50;99.90;;;;;;5054114;28;20175;-54
2024/02/04 06:35:54;;;;;;;22.47;10.50;;;10.50;99.90;;;;;;5054119;28;20032;-53
2024/02/04 06:38:20;;;;;;;23.90;11.03;;;10.50;99.90;;;;;;5053962;28;20139;-54
2024/02/04 06:40:45;;;;;;;23.80;11.23;;;10.50;99.90;;;;;;5054030;28;20082;-54
2024/02/04 06:43:11;;;;;;;20.77;9.63;;;10.40;99.90;;;;;;5053955;28;20111;-55
2024/02/04 06:45:37;;;;;;;19.23;9.20;;;10.50;99.90;;;;;;5054128;28;20033;-55
2024/02/04 06:48:02;;;;;;;21.03;9.07;;;10.40;99.90;;;;;;5053781;28;20079;-51
2024/02/04 06:50:28;;;;;;;23.93;10.80;;;10.40;99.90;;;;;;5053891;28;20033;-55
2024/02/04 06:52:54;;;;;;;24.00;9.53;;;10.40;99.90;;;;;;5053737;28;20120;-55
2024/02/04 06:55:19;;;;;;;20.57;9.20;;;10.50;99.90;;;;;;5053698;28;20083;-55
2024/02/04 06:57:45;;;;;;;22.13;10.13;;;10.50;99.90;;;;;;5053553;28;20025;-54
2024/02/04 07:00:11;;;;;;;21.20;9.23;;;10.50;99.90;;;;;;5053567;28;20028;-53
2024/02/04 07:02:37;;;;;;;19.20;8.90;;;10.50;99.90;;;;;;5053644;28;20029;-53
2024/02/04 07:05:04;;;;;;;21.43;8.57;;;10.40;99.90;;;;;;5054771;28;20115;-54
2024/02/04 07:07:29;;;;;;;17.33;8.07;;;10.40;99.90;;;;;;5054773;28;20135;-51
2024/02/04 07:09:55;;;;;;;18.10;7.57;;;10.40;99.90;;;;;;5054475;28;20441;-52
2024/02/04 07:12:21;;;;;;;15.43;7.07;;;10.40;99.90;;;;;;5054658;28;20029;-52
2024/02/04 07:14:47;;;;;;;17.33;7.73;;;10.50;99.90;;;;;;5053490;28;20398;-52
2024/02/04 07:17:13;;;;;;;16.90;7.73;;;10.50;99.90;;;;;;5053191;28;20033;-51
2024/02/04 07:19:38;;;;;;;15.97;7.27;;;10.50;99.90;;;;;;5052162;28;20037;-54
2024/02/04 07:22:04;;;;;;;20.07;7.70;;;10.40;99.90;;;;;;5053309;28;20100;-54
2024/02/04 07:24:29;;;;;;;15.80;6.80;;;10.40;99.90;;;;;;5053098;28;20052;-55
2024/02/04 07:26:55;;;;;;;16.97;7.43;;;10.40;99.90;;;;;;5053024;28;20402;-52
2024/02/04 07:29:21;;;;;;;18.73;7.13;;;10.40;99.90;;;;;;5052947;28;20104;-51
2024/02/04 07:31:46;;;;;;;16.87;7.63;;;10.30;99.90;;;;;;5053329;28;20500;-54
2024/02/04 07:34:13;;;;;;;18.70;7.60;;;10.30;99.90;;;;;;5053020;28;20052;-54
2024/02/04 07:36:39;;;;;;;16.77;7.30;;;10.30;99.90;;;;;;5052983;28;20047;-55
2024/02/04 07:39:05;;;;;;;18.50;7.43;;;10.30;99.90;;;;;;5052972;28;20071;-54
2024/02/04 07:41:31;;;;;;;15.27;6.50;;;10.30;99.90;;;;;;5053460;28;20109;-53
2024/02/04 07:43:57;;;;;;;18.03;6.80;;;10.30;99.90;;;;;;5052372;28;20545;-54
2024/02/04 07:46:23;;;;;;;16.80;6.67;;;10.30;99.90;;;;;;5052778;28;20112;-55
2024/02/04 07:48:49;;;;;;;16.80;7.23;;;10.30;99.90;;;;;;5052707;28;20040;-54
2024/02/04 07:51:14;;;;;;;16.03;6.63;;;10.30;99.90;;;;;;5052635;28;20029;-54
2024/02/04 07:53:40;;;;;;;16.10;6.77;;;10.30;99.90;;;;;;5052530;28;20033;-54
2024/02/04 07:56:07;;;;;;;13.07;6.30;;;10.30;99.90;;;;;;5052534;28;20035;-55
2024/02/04 07:58:33;;;;;;;15.83;6.50;;;10.20;99.90;;;;;;5052895;28;20032;-53
2024/02/04 08:00:58;;;;;;;17.30;7.87;;;10.10;99.90;;;;;;5052618;28;20024;-55
2024/02/04 08:03:24;;;;;;;22.63;9.07;;;10.10;99.90;;;;;;5052455;28;20397;-53
2024/02/04 08:05:50;;;;;;;18.57;7.37;;;10.00;99.90;;;;;;5053059;28;20073;-51
2024/02/04 08:08:15;;;;;;;14.97;5.83;;;10.00;99.90;;;;;;5052379;28;20036;-55
2024/02/04 08:10:41;;;;;;;10.80;5.37;;;10.10;99.90;;;;;;5052281;28;20040;-55
2024/02/04 08:13:07;;;;;;;14.00;5.17;;;10.10;99.90;;;;;;5052319;28;20037;-54
2024/02/04 08:15:32;;;;;;;12.00;4.90;;;10.10;99.90;;;;;;5052439;28;20078;-54
2024/02/04 08:17:58;;;;;;;16.37;5.90;;;10.00;99.90;;;;;;5051211;28;20033;-53
2024/02/04 08:20:24;;;;;;;13.70;6.27;;;10.00;99.90;;;;;;5051298;28;20029;-53
2024/02/04 08:22:49;;;;;;;16.47;6.17;;;10.10;99.90;;;;;;5052188;28;20029;-51
2024/02/04 08:25:15;;;;;;;13.90;6.10;;;10.00;99.90;;;;;;5052089;28;20040;-53
2024/02/04 08:27:41;;;;;;;10.30;5.23;;;10.10;99.90;;;;;;5052134;28;20032;-54
2024/02/04 08:30:07;;;;;;;12.90;5.50;;;10.10;99.90;;;;;;5052284;28;20029;-54
2024/02/04 08:32:32;;;;;;;11.27;5.10;;;10.10;99.90;;;;;;5052422;28;20162;-54
2024/02/04 08:34:58;;;;;;;12.57;5.43;;;10.10;99.90;;;;;;5052111;28;20074;-54
2024/02/04 08:37:24;;;;;;;12.53;5.40;;;10.10;99.90;;;;;;5051944;28;20436;-54
2024/02/04 08:39:49;;;;;;;12.33;5.60;;;10.20;99.90;;;;;;5050891;28;20029;-52
2024/02/04 08:42:15;;;;;;;15.43;6.30;;;10.20;99.90;;;;;;5052306;28;20465;-51
2024/02/04 08:44:41;;;;;;;13.27;6.30;;;10.10;99.90;;;;;;5050755;28;20025;-52
2024/02/04 08:47:12;;;;;;;11.87;6.17;;;10.20;99.90;;;;;;5051934;28;20386;-54
2024/02/04 08:49:38;;;;;;;13.57;6.57;;;10.20;99.90;;;;;;5052047;28;20041;-51
2024/02/04 08:52:03;;;;;;;12.37;6.23;;;10.10;99.90;;;;;;5052002;28;20033;-54
2024/02/04 08:54:29;;;;;;;18.80;7.33;;;10.10;99.90;;;;;;5051912;28;20397;-54
2024/02/04 08:56:55;;;;;;;15.27;6.43;;;10.20;99.90;;;;;;5050832;28;20032;-53
2024/02/04 08:59:21;;;;;;;14.37;5.90;;;10.20;99.90;;;;;;5051854;28;20029;-53
2024/02/04 09:01:46;;;;;;;11.50;5.77;;;10.20;99.90;;;;;;5052041;28;20482;-54
2024/02/04 09:04:12;;;;;;;20.60;7.43;;;10.20;99.90;;;;;;5051915;28;20036;-53
2024/02/04 09:06:37;;;;;;;13.37;6.03;;;10.30;99.90;;;;;;5051729;28;20421;-50
2024/02/04 09:09:03;;;;;;;12.63;6.17;;;10.30;99.90;;;;;;5051691;28;20453;-53
2024/02/04 09:11:30;;;;;;;14.10;6.10;;;10.30;99.90;;;;;;5051821;28;20041;-53
2024/02/04 09:13:55;;;;;;;11.90;6.03;;;10.30;99.90;;;;;;5051868;28;20033;-53
2024/02/04 09:16:21;;;;;;;13.63;5.57;;;10.30;99.90;;;;;;5051839;28;20029;-54
2024/02/04 09:18:47;;;;;;;15.73;6.07;;;10.40;99.90;;;;;;5051706;28;20025;-53
2024/02/04 09:21:13;;;;;;;14.60;5.70;;;10.40;99.90;;;;;;5051647;28;20464;-54
2024/02/04 09:23:39;;;;;;;11.87;5.53;;;10.40;99.90;;;;;;5051606;28;20083;-54
2024/02/04 09:26:05;;;;;;;11.23;5.40;;;10.50;99.90;;;;;;5051482;28;20500;-51
2024/02/04 09:28:30;;;;;;;13.53;5.37;;;10.50;99.90;;;;;;5051594;28;20378;-54
2024/02/04 09:30:56;;;;;;;12.73;5.93;;;10.50;99.90;;;;;;5051773;28;20036;-54
2024/02/04 09:33:21;;;;;;;13.80;5.83;;;10.60;99.90;;;;;;5051544;28;20056;-54
2024/02/04 09:35:48;;;;;;;11.80;5.33;;;10.60;99.90;;;;;;5051726;28;20036;-52
2024/02/04 09:38:15;;;;;;;10.13;5.10;;;10.60;99.90;;;;;;5051735;28;20370;-53
2024/02/04 09:40:41;;;;;;;12.13;5.30;;;10.60;99.90;;;;;;5051905;28;20163;-53
2024/02/04 09:43:07;;;;;;;11.87;4.83;;;10.60;99.90;;;;;;5052000;28;20108;-53
2024/02/04 09:45:33;;;;;;;10.80;5.00;;;10.60;99.90;;;;;;5052408;28;20534;-51
2024/02/04 09:48:00;;;;;;;11.80;5.17;;;10.50;99.90;;;;;;5052301;28;20033;-52
2024/02/04 09:50:26;;;;;;;10.67;5.57;;;10.60;99.90;;;;;;5051216;28;20033;-51
2024/02/04 09:52:57;;;;;;;12.07;5.00;;;10.60;99.90;;;;;;5052519;28;20039;-50
2024/02/04 09:55:25;;;;;;;10.63;5.50;;;10.60;99.90;;;;;;5052064;28;20037;-51
2024/02/04 09:57:50;;;;;;;11.00;4.60;;;10.60;99.90;;;;;;5052233;28;20033;-51
2024/02/04 10:00:19;;;;;;;9.67;4.73;;;10.60;99.90;;;;;;5052367;28;20370;-52
2024/02/04 10:02:47;;;;;;;10.20;4.68;;;10.50;99.90;;;;;;5052341;28;20544;-52
2024/02/04 10:05:12;;;;;;;9.93;4.93;;;10.50;99.90;;;;;;5052042;28;20025;-52
2024/02/04 10:07:38;;;;;;;10.43;4.93;;;10.50;99.90;;;;;;5052934;28;20029;-50
2024/02/04 10:10:06;;;;;;;10.37;5.10;;;10.50;99.90;;;;;;5054883;28;20029;-50
2024/02/04 10:12:31;;;;;;;9.77;4.40;;;10.50;99.90;;;;;;5054748;28;20064;-54
2024/02/04 10:14:58;;;;;;;11.67;4.97;;;10.50;99.90;;;;;;5054801;28;20186;-51
2024/02/04 10:17:25;;;;;;;9.63;5.10;;;10.60;99.90;;;;;;5054508;28;20083;-52
2024/02/04 10:19:51;;;;;;;10.60;4.70;;;10.60;99.90;;;;;;5054528;28;20029;-50
2024/02/04 10:22:19;;;;;;;10.53;4.93;;;10.70;99.90;;;;;;5054494;28;20116;-54
2024/02/04 10:24:47;;;;;;;10.88;4.82;;;10.70;99.90;;;;;;5053103;28;20029;-50
2024/02/04 10:27:15;;;;;;;10.33;4.27;;;10.70;99.90;;;;;;5054501;28;20037;-50
2024/02/04 10:29:40;;;;;;;9.77;5.00;;;10.90;99.90;;;;;;5054444;28;20036;-50
2024/02/04 10:32:08;;;;;;;8.77;4.50;;;10.90;99.90;;;;;;5054414;28;20105;-50
2024/02/04 10:34:37;;;;;;;8.53;4.43;;;10.90;99.90;;;;;;5054272;28;20043;-50
2024/02/04 10:37:02;;;;;;;11.43;4.20;;;11.00;99.90;;;;;;5054233;28;20477;-51
2024/02/04 10:39:28;;;;;;;8.80;4.00;;;11.10;99.90;;;;;;5054298;28;20036;-51
2024/02/04 10:41:59;;;;;;;14.60;6.53;;;11.10;99.90;;;;;;5054199;28;20022;-50
2024/02/04 10:44:28;;;;;;;9.67;5.00;;;11.20;99.90;;;;;;5054770;28;20063;-51
2024/02/04 10:46:55;;;;;;;8.20;4.10;;;11.20;99.90;;;;;;5054072;28;20063;-54
2024/02/04 10:49:21;;;;;;;7.70;4.03;;;11.30;99.90;;;;;;5054532;28;20029;-51
2024/02/04 10:51:48;;;;;;;6.63;3.37;;;11.20;99.90;;;;;;5054375;28;20033;-51
2024/02/04 10:54:16;;;;;;;9.07;4.17;;;11.30;99.90;;;;;;5055255;28;20028;-54
2024/02/04 10:56:46;;;;;;;6.68;3.30;;;11.30;99.90;;;;;;5053845;28;20033;-53
2024/02/04 10:59:17;;;;;;;7.00;3.40;;;11.30;99.90;;;;;;5053992;28;20033;-53
2024/02/04 11:01:45;;;;;;;7.43;3.23;;;11.30;99.90;;;;;;5053932;28;20033;-53
2024/02/04 11:04:14;;;;;;;6.87;3.53;;;11.20;99.90;;;;;;5053702;28;20048;-50
2024/02/04 11:06:41;;;;;;;6.90;2.50;;;11.10;99.90;;;;;;5053463;28;20036;-52
2024/02/04 11:09:09;;;;;;;6.13;2.67;;;11.10;99.90;;;;;;5054152;28;20029;-51
2024/02/04 11:11:36;;;;;;;7.23;3.37;;;11.00;99.90;;;;;;5053878;28;20072;-54
2024/02/04 11:14:05;;;;;;;5.87;3.10;;;11.00;99.90;;;;;;5053436;28;20037;-51
2024/02/04 11:16:54;;;;;;;6.05;3.50;;;10.90;99.90;;;;;;5053763;28;20036;-53
2024/02/04 11:19:56;;;;;;;5.13;2.70;;;10.90;99.90;;;;;;5052920;28;20033;-54
2024/02/04 11:23:06;;;;;;;6.33;2.80;;;10.70;99.90;;;;;;5053285;28;20025;-52
2024/02/04 11:25:47;;;;;;;7.23;2.87;;;10.70;99.90;;;;;;5053336;28;20490;-53
2024/02/04 11:28:15;;;;;;;6.43;3.40;;;10.70;99.90;;;;;;5053468;28;20508;-52
2024/02/04 11:30:43;;;;;;;7.07;3.00;;;10.70;99.90;;;;;;5053326;28;20079;-52
2024/02/04 11:33:11;;;;;;;7.40;3.77;;;10.70;99.90;;;;;;5053196;28;20063;-52
2024/02/04 11:35:37;;;;;;;8.73;3.97;;;10.80;99.90;;;;;;5053195;28;20025;-53
2024/02/04 11:38:04;;;;;;;8.33;3.87;;;10.70;99.90;;;;;;5053108;28;20047;-51
2024/02/04 11:40:37;;;;;;;7.20;3.97;;;10.70;99.90;;;;;;5053174;28;20074;-52
2024/02/04 11:43:13;;;;;;;8.20;3.90;;;10.70;99.90;;;;;;5052972;28;20025;-54
2024/02/04 11:45:40;;;;;;;8.97;3.80;;;10.80;99.90;;;;;;5051981;28;20481;-51
2024/02/04 11:48:10;;;;;;;8.23;4.03;;;10.80;99.90;;;;;;5052931;28;20394;-52
2024/02/04 11:50:37;;;;;;;8.83;4.67;;;10.80;99.90;;;;;;5052927;28;20111;-53
2024/02/04 11:53:11;;;;;;;9.37;4.20;;;10.80;99.90;;;;;;5051754;28;20052;-53
2024/02/04 11:55:39;;;;;;;8.30;4.20;;;10.80;99.90;;;;;;5052649;28;20454;-54
2024/02/04 11:58:06;;;;;;;9.57;4.17;;;10.80;99.90;;;;;;5052812;28;20033;-53
2024/02/04 12:00:34;;;;;;;9.53;4.43;;;10.80;99.90;;;;;;5053092;28;20435;-53
2024/02/04 12:03:04;;;;;;;9.03;4.07;;;10.90;99.90;;;;;;5052680;28;20040;-54
2024/02/04 12:05:36;;;;;;;7.83;4.27;;;10.90;99.90;;;;;;5052666;28;20083;-51
2024/02/04 12:08:04;;;;;;;7.70;3.90;;;10.90;99.90;;;;;;5052576;28;20025;-55
2024/02/04 12:10:35;;;;;;;8.83;3.87;;;10.90;99.90;;;;;;5051231;28;20051;-55
2024/02/04 12:13:06;;;;;;;10.67;4.27;;;10.90;99.90;;;;;;5052572;28;20104;-53
2024/02/04 12:15:33;;;;;;;11.53;4.70;;;11.00;99.90;;;;;;5052828;28;20025;-55
2024/02/04 12:18:06;;;;;;;7.17;3.87;;;10.90;99.90;;;;;;5052450;28;20461;-52
2024/02/04 12:20:32;;;;;;;9.07;4.30;;;11.00;99.90;;;;;;5052468;28;20025;-52
2024/02/04 12:22:58;;;;;;;9.83;4.30;;;11.00;99.90;;;;;;5052327;28;20029;-53
2024/02/04 12:25:26;;;;;;;9.30;4.10;;;11.10;99.90;;;;;;5052308;28;20069;-53
2024/02/04 12:27:52;;;;;;;10.48;4.25;;;11.10;99.90;;;;;;5052256;28;20033;-54
2024/02/04 12:30:18;;;;;;;8.30;3.83;;;11.10;99.90;;;;;;5052214;28;20035;-54
2024/02/04 12:32:43;;;;;;;9.50;3.73;;;11.10;99.90;;;;;;5052147;28;20417;-52
2024/02/04 12:35:13;;;;;;;7.97;3.53;;;11.10;99.90;;;;;;5052026;28;20044;-54
2024/02/04 12:37:50;;;;;;;7.23;3.43;;;11.10;99.90;;;;;;5051798;28;20033;-55